sensor_id;sensor_type;location;lat;lon;timestamp;P1;durP1;ratioP1;P2;durP2;ratioP2
68680;SDS011;55836;49.858;6.756;2023-07-24T00:00:57;3.40;;;2.70;;
68680;SDS011;55836;49.858;6.756;2023-07-24T00:03:23;6.10;;;2.70;;
68680;SDS011;55836;49.858;6.756;2023-07-24T00:05:49;2.77;;;2.37;;
68680;SDS011;55836;49.858;6.756;2023-07-24T00:08:15;3.07;;;2.77;;
68680;SDS011;55836;49.858;6.756;2023-07-24T00:10:41;3.97;;;2.70;;
68680;SDS011;55836;49.858;6.756;2023-07-24T00:13:07;3.33;;;3.03;;
68680;SDS011;55836;49.858;6.756;2023-07-24T00:15:33;3.73;;;3.23;;
68680;SDS011;55836;49.858;6.756;2023-07-24T00:17:59;6.37;;;3.50;;
68680;SDS011;55836;49.858;6.756;2023-07-24T00:20:25;3.30;;;3.00;;
68680;SDS011;55836;49.858;6.756;2023-07-24T00:22:52;5.50;;;3.20;;
68680;SDS011;55836;49.858;6.756;2023-07-24T00:25:18;3.87;;;3.23;;
68680;SDS011;55836;49.858;6.756;2023-07-24T00:27:44;5.07;;;2.80;;
68680;SDS011;55836;49.858;6.756;2023-07-24T00:30:10;5.87;;;2.93;;
68680;SDS011;55836;49.858;6.756;2023-07-24T00:32:36;4.43;;;3.50;;
68680;SDS011;55836;49.858;6.756;2023-07-24T00:35:02;4.33;;;3.10;;
68680;SDS011;55836;49.858;6.756;2023-07-24T00:37:28;6.47;;;3.27;;
68680;SDS011;55836;49.858;6.756;2023-07-24T00:39:54;4.17;;;2.67;;
68680;SDS011;55836;49.858;6.756;2023-07-24T00:42:20;3.93;;;2.80;;
68680;SDS011;55836;49.858;6.756;2023-07-24T00:44:46;4.33;;;2.83;;
68680;SDS011;55836;49.858;6.756;2023-07-24T00:47:12;4.03;;;3.03;;
68680;SDS011;55836;49.858;6.756;2023-07-24T00:49:38;2.83;;;2.50;;
68680;SDS011;55836;49.858;6.756;2023-07-24T00:52:05;3.90;;;2.87;;
68680;SDS011;55836;49.858;6.756;2023-07-24T00:54:31;3.63;;;3.10;;
68680;SDS011;55836;49.858;6.756;2023-07-24T00:56:58;5.47;;;2.80;;
68680;SDS011;55836;49.858;6.756;2023-07-24T00:59:24;3.43;;;2.83;;
68680;SDS011;55836;49.858;6.756;2023-07-24T01:01:50;3.40;;;2.80;;
68680;SDS011;55836;49.858;6.756;2023-07-24T01:04:16;4.33;;;3.10;;
68680;SDS011;55836;49.858;6.756;2023-07-24T01:06:43;4.10;;;3.10;;
68680;SDS011;55836;49.858;6.756;2023-07-24T01:09:09;3.90;;;3.50;;
68680;SDS011;55836;49.858;6.756;2023-07-24T01:11:50;5.90;;;3.30;;
68680;SDS011;55836;49.858;6.756;2023-07-24T01:16:42;3.10;;;2.80;;
68680;SDS011;55836;49.858;6.756;2023-07-24T01:19:11;4.03;;;3.63;;
68680;SDS011;55836;49.858;6.756;2023-07-24T01:24:45;4.17;;;2.97;;
68680;SDS011;55836;49.858;6.756;2023-07-24T01:27:25;4.07;;;3.00;;
68680;SDS011;55836;49.858;6.756;2023-07-24T01:29:51;4.00;;;3.20;;
68680;SDS011;55836;49.858;6.756;2023-07-24T01:32:21;4.53;;;3.20;;
68680;SDS011;55836;49.858;6.756;2023-07-24T01:34:47;4.90;;;3.90;;
68680;SDS011;55836;49.858;6.756;2023-07-24T01:37:13;4.47;;;3.30;;
68680;SDS011;55836;49.858;6.756;2023-07-24T01:39:40;3.90;;;3.40;;
68680;SDS011;55836;49.858;6.756;2023-07-24T01:42:06;4.87;;;3.10;;
68680;SDS011;55836;49.858;6.756;2023-07-24T01:44:32;3.43;;;2.97;;
68680;SDS011;55836;49.858;6.756;2023-07-24T01:46:58;6.10;;;3.63;;
68680;SDS011;55836;49.858;6.756;2023-07-24T01:49:24;6.10;;;3.90;;
68680;SDS011;55836;49.858;6.756;2023-07-24T01:51:50;4.40;;;3.60;;
68680;SDS011;55836;49.858;6.756;2023-07-24T01:54:16;4.17;;;3.17;;
68680;SDS011;55836;49.858;6.756;2023-07-24T01:56:42;4.37;;;3.10;;
68680;SDS011;55836;49.858;6.756;2023-07-24T01:59:09;5.70;;;2.90;;
68680;SDS011;55836;49.858;6.756;2023-07-24T02:01:35;4.50;;;3.30;;
68680;SDS011;55836;49.858;6.756;2023-07-24T02:04:01;5.13;;;3.20;;
68680;SDS011;55836;49.858;6.756;2023-07-24T02:06:27;4.17;;;3.30;;
68680;SDS011;55836;49.858;6.756;2023-07-24T02:08:53;3.30;;;3.00;;
68680;SDS011;55836;49.858;6.756;2023-07-24T02:11:19;3.77;;;2.90;;
68680;SDS011;55836;49.858;6.756;2023-07-24T02:13:45;3.60;;;3.07;;
68680;SDS011;55836;49.858;6.756;2023-07-24T02:16:14;5.30;;;3.30;;
68680;SDS011;55836;49.858;6.756;2023-07-24T02:18:40;4.17;;;3.50;;
68680;SDS011;55836;49.858;6.756;2023-07-24T02:21:07;4.37;;;3.50;;
68680;SDS011;55836;49.858;6.756;2023-07-24T02:23:33;5.97;;;3.43;;
68680;SDS011;55836;49.858;6.756;2023-07-24T02:25:59;5.80;;;3.37;;
68680;SDS011;55836;49.858;6.756;2023-07-24T02:28:25;4.87;;;4.17;;
68680;SDS011;55836;49.858;6.756;2023-07-24T02:30:51;5.23;;;3.87;;
68680;SDS011;55836;49.858;6.756;2023-07-24T02:33:21;3.90;;;3.50;;
68680;SDS011;55836;49.858;6.756;2023-07-24T02:35:47;4.93;;;3.90;;
68680;SDS011;55836;49.858;6.756;2023-07-24T02:38:13;4.87;;;3.93;;
68680;SDS011;55836;49.858;6.756;2023-07-24T02:40:40;4.17;;;3.53;;
68680;SDS011;55836;49.858;6.756;2023-07-24T02:43:06;4.43;;;3.70;;
68680;SDS011;55836;49.858;6.756;2023-07-24T02:45:35;5.80;;;3.87;;
68680;SDS011;55836;49.858;6.756;2023-07-24T02:48:01;4.93;;;3.07;;
68680;SDS011;55836;49.858;6.756;2023-07-24T02:50:27;5.00;;;3.90;;
68680;SDS011;55836;49.858;6.756;2023-07-24T02:52:53;5.60;;;4.03;;
68680;SDS011;55836;49.858;6.756;2023-07-24T02:55:19;4.43;;;3.90;;
68680;SDS011;55836;49.858;6.756;2023-07-24T02:57:45;4.57;;;3.83;;
68680;SDS011;55836;49.858;6.756;2023-07-24T03:00:11;5.57;;;3.43;;
68680;SDS011;55836;49.858;6.756;2023-07-24T03:02:38;4.63;;;3.60;;
68680;SDS011;55836;49.858;6.756;2023-07-24T03:05:04;4.83;;;3.90;;
68680;SDS011;55836;49.858;6.756;2023-07-24T03:07:31;5.10;;;3.83;;
68680;SDS011;55836;49.858;6.756;2023-07-24T03:09:57;4.90;;;3.30;;
68680;SDS011;55836;49.858;6.756;2023-07-24T03:12:23;6.87;;;4.23;;
68680;SDS011;55836;49.858;6.756;2023-07-24T03:14:49;4.73;;;3.87;;
68680;SDS011;55836;49.858;6.756;2023-07-24T03:17:15;4.50;;;3.50;;
68680;SDS011;55836;49.858;6.756;2023-07-24T03:19:41;5.60;;;3.73;;
68680;SDS011;55836;49.858;6.756;2023-07-24T03:22:07;5.67;;;3.77;;
68680;SDS011;55836;49.858;6.756;2023-07-24T03:24:34;5.67;;;3.80;;
68680;SDS011;55836;49.858;6.756;2023-07-24T03:27:00;4.97;;;3.43;;
68680;SDS011;55836;49.858;6.756;2023-07-24T03:29:26;4.33;;;3.87;;
68680;SDS011;55836;49.858;6.756;2023-07-24T03:31:52;8.93;;;3.73;;
68680;SDS011;55836;49.858;6.756;2023-07-24T03:34:18;4.57;;;3.20;;
68680;SDS011;55836;49.858;6.756;2023-07-24T03:36:45;7.07;;;4.17;;
68680;SDS011;55836;49.858;6.756;2023-07-24T03:39:11;6.70;;;3.93;;
68680;SDS011;55836;49.858;6.756;2023-07-24T03:41:37;5.93;;;3.93;;
68680;SDS011;55836;49.858;6.756;2023-07-24T03:44:03;6.67;;;3.70;;
68680;SDS011;55836;49.858;6.756;2023-07-24T03:46:31;4.97;;;4.03;;
68680;SDS011;55836;49.858;6.756;2023-07-24T03:48:57;5.93;;;3.77;;
68680;SDS011;55836;49.858;6.756;2023-07-24T03:51:23;5.03;;;4.53;;
68680;SDS011;55836;49.858;6.756;2023-07-24T03:53:49;4.83;;;3.67;;
68680;SDS011;55836;49.858;6.756;2023-07-24T03:56:15;4.90;;;4.03;;
68680;SDS011;55836;49.858;6.756;2023-07-24T03:58:42;5.93;;;4.23;;
68680;SDS011;55836;49.858;6.756;2023-07-24T04:01:08;3.97;;;3.27;;
68680;SDS011;55836;49.858;6.756;2023-07-24T04:03:34;4.67;;;3.83;;
68680;SDS011;55836;49.858;6.756;2023-07-24T04:06:01;5.53;;;4.00;;
68680;SDS011;55836;49.858;6.756;2023-07-24T04:08:27;6.30;;;4.10;;
68680;SDS011;55836;49.858;6.756;2023-07-24T04:10:53;3.77;;;3.40;;
68680;SDS011;55836;49.858;6.756;2023-07-24T04:13:21;4.77;;;4.03;;
68680;SDS011;55836;49.858;6.756;2023-07-24T04:15:47;5.83;;;3.90;;
68680;SDS011;55836;49.858;6.756;2023-07-24T04:18:13;3.87;;;3.47;;
68680;SDS011;55836;49.858;6.756;2023-07-24T04:20:39;7.60;;;4.03;;
68680;SDS011;55836;49.858;6.756;2023-07-24T04:23:05;5.87;;;3.83;;
68680;SDS011;55836;49.858;6.756;2023-07-24T04:25:31;6.17;;;4.23;;
68680;SDS011;55836;49.858;6.756;2023-07-24T04:27:57;4.93;;;3.67;;
68680;SDS011;55836;49.858;6.756;2023-07-24T04:30:23;5.40;;;4.00;;
68680;SDS011;55836;49.858;6.756;2023-07-24T04:32:49;4.87;;;4.07;;
68680;SDS011;55836;49.858;6.756;2023-07-24T04:35:16;5.47;;;4.00;;
68680;SDS011;55836;49.858;6.756;2023-07-24T04:37:42;6.17;;;4.10;;
68680;SDS011;55836;49.858;6.756;2023-07-24T04:40:08;5.27;;;3.73;;
68680;SDS011;55836;49.858;6.756;2023-07-24T04:42:34;6.37;;;3.97;;
68680;SDS011;55836;49.858;6.756;2023-07-24T04:45:00;5.57;;;4.00;;
68680;SDS011;55836;49.858;6.756;2023-07-24T04:47:26;4.77;;;4.07;;
68680;SDS011;55836;49.858;6.756;2023-07-24T04:49:52;7.00;;;4.27;;
68680;SDS011;55836;49.858;6.756;2023-07-24T04:52:18;4.30;;;3.90;;
68680;SDS011;55836;49.858;6.756;2023-07-24T04:54:44;5.47;;;3.90;;
68680;SDS011;55836;49.858;6.756;2023-07-24T04:57:10;6.03;;;3.80;;
68680;SDS011;55836;49.858;6.756;2023-07-24T04:59:36;6.67;;;4.27;;
68680;SDS011;55836;49.858;6.756;2023-07-24T05:02:02;4.60;;;3.80;;
68680;SDS011;55836;49.858;6.756;2023-07-24T05:04:28;5.70;;;4.20;;
68680;SDS011;55836;49.858;6.756;2023-07-24T05:06:54;8.50;;;4.20;;
68680;SDS011;55836;49.858;6.756;2023-07-24T05:09:20;6.57;;;3.90;;
68680;SDS011;55836;49.858;6.756;2023-07-24T05:11:46;8.60;;;4.27;;
68680;SDS011;55836;49.858;6.756;2023-07-24T05:14:12;7.33;;;4.20;;
68680;SDS011;55836;49.858;6.756;2023-07-24T05:16:38;6.43;;;4.00;;
68680;SDS011;55836;49.858;6.756;2023-07-24T05:19:04;5.33;;;4.00;;
68680;SDS011;55836;49.858;6.756;2023-07-24T05:21:30;5.03;;;4.23;;
68680;SDS011;55836;49.858;6.756;2023-07-24T05:23:56;5.43;;;4.00;;
68680;SDS011;55836;49.858;6.756;2023-07-24T05:26:22;5.33;;;3.93;;
68680;SDS011;55836;49.858;6.756;2023-07-24T05:28:48;5.03;;;4.00;;
68680;SDS011;55836;49.858;6.756;2023-07-24T05:31:14;5.87;;;4.30;;
68680;SDS011;55836;49.858;6.756;2023-07-24T05:33:40;6.73;;;4.73;;
68680;SDS011;55836;49.858;6.756;2023-07-24T05:36:06;5.90;;;3.97;;
68680;SDS011;55836;49.858;6.756;2023-07-24T05:38:32;6.40;;;4.30;;
68680;SDS011;55836;49.858;6.756;2023-07-24T05:40:59;5.47;;;4.10;;
68680;SDS011;55836;49.858;6.756;2023-07-24T05:43:25;5.20;;;3.70;;
68680;SDS011;55836;49.858;6.756;2023-07-24T05:45:52;5.23;;;3.90;;
68680;SDS011;55836;49.858;6.756;2023-07-24T05:48:18;5.17;;;4.23;;
68680;SDS011;55836;49.858;6.756;2023-07-24T05:50:44;4.33;;;3.37;;
68680;SDS011;55836;49.858;6.756;2023-07-24T05:53:10;6.70;;;3.73;;
68680;SDS011;55836;49.858;6.756;2023-07-24T05:55:36;5.47;;;4.20;;
68680;SDS011;55836;49.858;6.756;2023-07-24T05:58:02;6.53;;;4.90;;
68680;SDS011;55836;49.858;6.756;2023-07-24T06:00:28;4.73;;;3.83;;
68680;SDS011;55836;49.858;6.756;2023-07-24T06:02:54;5.20;;;3.57;;
68680;SDS011;55836;49.858;6.756;2023-07-24T06:05:20;5.33;;;3.90;;
68680;SDS011;55836;49.858;6.756;2023-07-24T06:07:46;4.27;;;3.87;;
68680;SDS011;55836;49.858;6.756;2023-07-24T06:10:13;4.27;;;3.63;;
68680;SDS011;55836;49.858;6.756;2023-07-24T06:12:39;5.47;;;3.93;;
68680;SDS011;55836;49.858;6.756;2023-07-24T06:15:05;5.27;;;4.00;;
68680;SDS011;55836;49.858;6.756;2023-07-24T06:17:31;5.10;;;3.77;;
68680;SDS011;55836;49.858;6.756;2023-07-24T06:19:57;5.97;;;3.50;;
68680;SDS011;55836;49.858;6.756;2023-07-24T06:22:23;4.90;;;3.97;;
68680;SDS011;55836;49.858;6.756;2023-07-24T06:24:49;6.37;;;4.43;;
68680;SDS011;55836;49.858;6.756;2023-07-24T06:27:15;7.20;;;3.83;;
68680;SDS011;55836;49.858;6.756;2023-07-24T06:29:41;4.43;;;3.80;;
68680;SDS011;55836;49.858;6.756;2023-07-24T06:32:07;5.03;;;4.43;;
68680;SDS011;55836;49.858;6.756;2023-07-24T06:34:34;4.30;;;3.80;;
68680;SDS011;55836;49.858;6.756;2023-07-24T06:37:00;4.83;;;4.03;;
68680;SDS011;55836;49.858;6.756;2023-07-24T06:39:26;6.70;;;4.10;;
68680;SDS011;55836;49.858;6.756;2023-07-24T06:41:54;4.73;;;4.20;;
68680;SDS011;55836;49.858;6.756;2023-07-24T06:44:20;5.83;;;3.93;;
68680;SDS011;55836;49.858;6.756;2023-07-24T06:46:46;6.30;;;4.53;;
68680;SDS011;55836;49.858;6.756;2023-07-24T06:49:12;5.37;;;4.10;;
68680;SDS011;55836;49.858;6.756;2023-07-24T06:51:38;5.87;;;4.23;;
68680;SDS011;55836;49.858;6.756;2023-07-24T06:54:05;5.83;;;4.70;;
68680;SDS011;55836;49.858;6.756;2023-07-24T06:56:31;5.67;;;4.40;;
68680;SDS011;55836;49.858;6.756;2023-07-24T06:58:57;4.57;;;3.70;;
68680;SDS011;55836;49.858;6.756;2023-07-24T07:01:23;6.73;;;4.17;;
68680;SDS011;55836;49.858;6.756;2023-07-24T07:03:49;5.50;;;4.10;;
68680;SDS011;55836;49.858;6.756;2023-07-24T07:06:16;4.70;;;4.20;;
68680;SDS011;55836;49.858;6.756;2023-07-24T07:08:42;6.07;;;3.90;;
68680;SDS011;55836;49.858;6.756;2023-07-24T07:11:08;5.90;;;3.63;;
68680;SDS011;55836;49.858;6.756;2023-07-24T07:13:34;5.67;;;4.30;;
68680;SDS011;55836;49.858;6.756;2023-07-24T07:16:00;5.73;;;4.50;;
68680;SDS011;55836;49.858;6.756;2023-07-24T07:18:26;5.27;;;4.20;;
68680;SDS011;55836;49.858;6.756;2023-07-24T07:20:52;4.93;;;4.40;;
68680;SDS011;55836;49.858;6.756;2023-07-24T07:23:19;6.37;;;4.83;;
68680;SDS011;55836;49.858;6.756;2023-07-24T07:25:45;5.73;;;4.63;;
68680;SDS011;55836;49.858;6.756;2023-07-24T07:28:12;6.63;;;5.03;;
68680;SDS011;55836;49.858;6.756;2023-07-24T07:30:38;6.27;;;4.70;;
68680;SDS011;55836;49.858;6.756;2023-07-24T07:33:04;6.33;;;5.20;;
68680;SDS011;55836;49.858;6.756;2023-07-24T07:35:31;7.03;;;5.10;;
68680;SDS011;55836;49.858;6.756;2023-07-24T07:37:57;8.03;;;5.43;;
68680;SDS011;55836;49.858;6.756;2023-07-24T07:40:23;6.73;;;4.73;;
68680;SDS011;55836;49.858;6.756;2023-07-24T07:42:51;8.03;;;5.27;;
68680;SDS011;55836;49.858;6.756;2023-07-24T07:45:17;7.07;;;4.80;;
68680;SDS011;55836;49.858;6.756;2023-07-24T07:47:44;7.10;;;5.37;;
68680;SDS011;55836;49.858;6.756;2023-07-24T07:50:12;6.23;;;5.00;;
68680;SDS011;55836;49.858;6.756;2023-07-24T07:52:38;7.40;;;4.73;;
68680;SDS011;55836;49.858;6.756;2023-07-24T07:55:05;8.57;;;5.47;;
68680;SDS011;55836;49.858;6.756;2023-07-24T07:57:32;7.53;;;5.47;;
68680;SDS011;55836;49.858;6.756;2023-07-24T07:59:58;7.63;;;5.47;;
68680;SDS011;55836;49.858;6.756;2023-07-24T08:02:24;5.87;;;5.13;;
68680;SDS011;55836;49.858;6.756;2023-07-24T08:04:50;6.63;;;5.33;;
68680;SDS011;55836;49.858;6.756;2023-07-24T08:07:16;7.60;;;5.93;;
68680;SDS011;55836;49.858;6.756;2023-07-24T08:09:42;7.73;;;6.17;;
68680;SDS011;55836;49.858;6.756;2023-07-24T08:12:08;7.93;;;5.63;;
68680;SDS011;55836;49.858;6.756;2023-07-24T08:14:34;7.27;;;5.37;;
68680;SDS011;55836;49.858;6.756;2023-07-24T08:17:00;12.00;;;5.80;;
68680;SDS011;55836;49.858;6.756;2023-07-24T08:19:29;7.87;;;6.00;;
68680;SDS011;55836;49.858;6.756;2023-07-24T08:21:55;7.27;;;5.83;;
68680;SDS011;55836;49.858;6.756;2023-07-24T08:24:21;8.10;;;5.67;;
68680;SDS011;55836;49.858;6.756;2023-07-24T08:26:47;7.57;;;5.63;;
68680;SDS011;55836;49.858;6.756;2023-07-24T08:29:14;7.53;;;5.57;;
68680;SDS011;55836;49.858;6.756;2023-07-24T08:31:40;7.40;;;4.87;;
68680;SDS011;55836;49.858;6.756;2023-07-24T08:34:06;8.33;;;5.73;;
68680;SDS011;55836;49.858;6.756;2023-07-24T08:36:33;8.40;;;5.73;;
68680;SDS011;55836;49.858;6.756;2023-07-24T08:38:59;8.63;;;5.47;;
68680;SDS011;55836;49.858;6.756;2023-07-24T08:41:25;9.70;;;5.77;;
68680;SDS011;55836;49.858;6.756;2023-07-24T08:43:51;7.97;;;5.53;;
68680;SDS011;55836;49.858;6.756;2023-07-24T08:46:18;8.23;;;4.80;;
68680;SDS011;55836;49.858;6.756;2023-07-24T08:48:45;8.10;;;5.67;;
68680;SDS011;55836;49.858;6.756;2023-07-24T08:51:11;6.10;;;5.10;;
68680;SDS011;55836;49.858;6.756;2023-07-24T08:53:38;6.50;;;5.27;;
68680;SDS011;55836;49.858;6.756;2023-07-24T08:56:05;7.30;;;5.63;;
68680;SDS011;55836;49.858;6.756;2023-07-24T08:58:32;6.87;;;4.87;;
68680;SDS011;55836;49.858;6.756;2023-07-24T09:00:59;5.73;;;4.90;;
68680;SDS011;55836;49.858;6.756;2023-07-24T09:03:25;6.40;;;5.13;;
68680;SDS011;55836;49.858;6.756;2023-07-24T09:05:51;7.63;;;4.80;;
68680;SDS011;55836;49.858;6.756;2023-07-24T09:08:28;8.37;;;5.33;;
68680;SDS011;55836;49.858;6.756;2023-07-24T09:10:55;7.37;;;5.00;;
68680;SDS011;55836;49.858;6.756;2023-07-24T09:13:21;6.53;;;4.93;;
68680;SDS011;55836;49.858;6.756;2023-07-24T09:15:47;7.07;;;5.07;;
68680;SDS011;55836;49.858;6.756;2023-07-24T09:18:13;5.50;;;4.53;;
68680;SDS011;55836;49.858;6.756;2023-07-24T09:20:41;7.00;;;5.47;;
68680;SDS011;55836;49.858;6.756;2023-07-24T09:23:08;5.53;;;4.33;;
68680;SDS011;55836;49.858;6.756;2023-07-24T09:25:34;6.63;;;3.90;;
68680;SDS011;55836;49.858;6.756;2023-07-24T09:28:01;5.27;;;4.03;;
68680;SDS011;55836;49.858;6.756;2023-07-24T09:30:34;6.97;;;3.73;;
68680;SDS011;55836;49.858;6.756;2023-07-24T09:33:00;6.23;;;4.67;;
68680;SDS011;55836;49.858;6.756;2023-07-24T09:35:26;5.33;;;4.13;;
68680;SDS011;55836;49.858;6.756;2023-07-24T09:38:02;7.90;;;3.90;;
68680;SDS011;55836;49.858;6.756;2023-07-24T09:40:36;5.17;;;4.57;;
68680;SDS011;55836;49.858;6.756;2023-07-24T09:43:02;6.40;;;4.47;;
68680;SDS011;55836;49.858;6.756;2023-07-24T09:45:28;4.87;;;4.33;;
68680;SDS011;55836;49.858;6.756;2023-07-24T09:47:54;7.90;;;4.20;;
68680;SDS011;55836;49.858;6.756;2023-07-24T09:50:25;5.23;;;4.03;;
68680;SDS011;55836;49.858;6.756;2023-07-24T09:52:51;6.57;;;3.87;;
68680;SDS011;55836;49.858;6.756;2023-07-24T09:55:25;6.90;;;3.87;;
68680;SDS011;55836;49.858;6.756;2023-07-24T09:57:54;5.50;;;3.87;;
68680;SDS011;55836;49.858;6.756;2023-07-24T10:00:20;5.07;;;4.20;;
68680;SDS011;55836;49.858;6.756;2023-07-24T10:02:46;7.90;;;3.83;;
68680;SDS011;55836;49.858;6.756;2023-07-24T10:05:13;8.97;;;4.27;;
68680;SDS011;55836;49.858;6.756;2023-07-24T10:07:39;7.23;;;4.27;;
68680;SDS011;55836;49.858;6.756;2023-07-24T10:10:06;5.10;;;3.60;;
68680;SDS011;55836;49.858;6.756;2023-07-24T10:12:32;5.87;;;3.63;;
68680;SDS011;55836;49.858;6.756;2023-07-24T10:14:59;6.03;;;3.43;;
68680;SDS011;55836;49.858;6.756;2023-07-24T10:17:38;4.80;;;3.33;;
68680;SDS011;55836;49.858;6.756;2023-07-24T10:20:05;4.43;;;3.83;;
68680;SDS011;55836;49.858;6.756;2023-07-24T10:22:31;4.03;;;3.63;;
68680;SDS011;55836;49.858;6.756;2023-07-24T10:24:57;7.70;;;3.83;;
68680;SDS011;55836;49.858;6.756;2023-07-24T10:27:24;6.47;;;3.67;;
68680;SDS011;55836;49.858;6.756;2023-07-24T10:29:59;7.97;;;3.90;;
68680;SDS011;55836;49.858;6.756;2023-07-24T10:32:26;4.33;;;3.67;;
68680;SDS011;55836;49.858;6.756;2023-07-24T10:34:55;5.20;;;3.47;;
68680;SDS011;55836;49.858;6.756;2023-07-24T10:37:30;5.57;;;3.57;;
68680;SDS011;55836;49.858;6.756;2023-07-24T10:39:56;5.17;;;3.33;;
68680;SDS011;55836;49.858;6.756;2023-07-24T10:42:22;4.67;;;3.60;;
68680;SDS011;55836;49.858;6.756;2023-07-24T10:44:49;4.57;;;3.40;;
68680;SDS011;55836;49.858;6.756;2023-07-24T10:47:15;8.20;;;3.70;;
68680;SDS011;55836;49.858;6.756;2023-07-24T10:49:47;5.30;;;2.97;;
68680;SDS011;55836;49.858;6.756;2023-07-24T10:52:14;4.57;;;2.87;;
68680;SDS011;55836;49.858;6.756;2023-07-24T10:54:40;5.43;;;2.93;;
68680;SDS011;55836;49.858;6.756;2023-07-24T10:57:06;4.80;;;3.07;;
68680;SDS011;55836;49.858;6.756;2023-07-24T10:59:38;3.93;;;2.60;;
68680;SDS011;55836;49.858;6.756;2023-07-24T11:02:05;3.80;;;2.43;;
68680;SDS011;55836;49.858;6.756;2023-07-24T11:04:31;5.10;;;2.50;;
68680;SDS011;55836;49.858;6.756;2023-07-24T11:06:59;3.47;;;2.70;;
68680;SDS011;55836;49.858;6.756;2023-07-24T11:09:46;4.50;;;2.70;;
68680;SDS011;55836;49.858;6.756;2023-07-24T11:12:15;2.43;;;2.13;;
68680;SDS011;55836;49.858;6.756;2023-07-24T11:14:48;3.10;;;2.33;;
68680;SDS011;55836;49.858;6.756;2023-07-24T11:17:14;7.30;;;3.50;;
68680;SDS011;55836;49.858;6.756;2023-07-24T11:19:40;7.63;;;3.13;;
68680;SDS011;55836;49.858;6.756;2023-07-24T11:22:06;3.17;;;2.60;;
68680;SDS011;55836;49.858;6.756;2023-07-24T11:24:41;3.27;;;2.80;;
68680;SDS011;55836;49.858;6.756;2023-07-24T11:27:14;6.23;;;3.33;;
68680;SDS011;55836;49.858;6.756;2023-07-24T11:29:40;5.27;;;3.20;;
68680;SDS011;55836;49.858;6.756;2023-07-24T11:32:09;4.63;;;3.40;;
68680;SDS011;55836;49.858;6.756;2023-07-24T11:34:35;4.10;;;3.10;;
68680;SDS011;55836;49.858;6.756;2023-07-24T11:37:02;5.57;;;3.30;;
68680;SDS011;55836;49.858;6.756;2023-07-24T11:39:28;4.87;;;3.23;;
68680;SDS011;55836;49.858;6.756;2023-07-24T11:41:55;4.57;;;3.40;;
68680;SDS011;55836;49.858;6.756;2023-07-24T11:44:24;6.57;;;3.13;;
68680;SDS011;55836;49.858;6.756;2023-07-24T11:46:51;4.07;;;3.13;;
68680;SDS011;55836;49.858;6.756;2023-07-24T11:49:21;5.17;;;3.27;;
68680;SDS011;55836;49.858;6.756;2023-07-24T11:51:48;4.37;;;3.30;;
68680;SDS011;55836;49.858;6.756;2023-07-24T11:54:15;4.83;;;3.17;;
68680;SDS011;55836;49.858;6.756;2023-07-24T11:56:41;3.90;;;3.00;;
68680;SDS011;55836;49.858;6.756;2023-07-24T11:59:13;3.63;;;2.83;;
68680;SDS011;55836;49.858;6.756;2023-07-24T12:01:40;4.93;;;3.43;;
68680;SDS011;55836;49.858;6.756;2023-07-24T12:04:06;4.97;;;3.70;;
68680;SDS011;55836;49.858;6.756;2023-07-24T12:06:32;4.67;;;3.50;;
68680;SDS011;55836;49.858;6.756;2023-07-24T12:09:02;5.20;;;3.40;;
68680;SDS011;55836;49.858;6.756;2023-07-24T12:11:30;6.53;;;3.70;;
68680;SDS011;55836;49.858;6.756;2023-07-24T12:13:57;6.97;;;4.20;;
68680;SDS011;55836;49.858;6.756;2023-07-24T12:16:23;7.73;;;4.30;;
68680;SDS011;55836;49.858;6.756;2023-07-24T12:18:49;7.43;;;4.17;;
68680;SDS011;55836;49.858;6.756;2023-07-24T12:21:15;7.37;;;4.60;;
68680;SDS011;55836;49.858;6.756;2023-07-24T12:23:41;7.17;;;4.30;;
68680;SDS011;55836;49.858;6.756;2023-07-24T12:26:07;8.03;;;4.47;;
68680;SDS011;55836;49.858;6.756;2023-07-24T12:28:33;6.60;;;4.27;;
68680;SDS011;55836;49.858;6.756;2023-07-24T12:30:59;5.50;;;4.10;;
68680;SDS011;55836;49.858;6.756;2023-07-24T12:33:25;5.83;;;4.00;;
68680;SDS011;55836;49.858;6.756;2023-07-24T12:35:51;7.97;;;4.53;;
68680;SDS011;55836;49.858;6.756;2023-07-24T12:38:20;8.27;;;4.37;;
68680;SDS011;55836;49.858;6.756;2023-07-24T12:40:46;5.53;;;4.20;;
68680;SDS011;55836;49.858;6.756;2023-07-24T12:43:14;6.23;;;4.00;;
68680;SDS011;55836;49.858;6.756;2023-07-24T12:45:40;5.80;;;4.23;;
68680;SDS011;55836;49.858;6.756;2023-07-24T12:48:06;4.93;;;3.50;;
68680;SDS011;55836;49.858;6.756;2023-07-24T12:50:33;6.10;;;3.67;;
68680;SDS011;55836;49.858;6.756;2023-07-24T12:52:59;5.77;;;3.40;;
68680;SDS011;55836;49.858;6.756;2023-07-24T12:55:25;3.03;;;2.20;;
68680;SDS011;55836;49.858;6.756;2023-07-24T12:57:52;6.33;;;2.87;;
68680;SDS011;55836;49.858;6.756;2023-07-24T13:00:18;3.17;;;2.43;;
68680;SDS011;55836;49.858;6.756;2023-07-24T13:02:46;4.43;;;2.60;;
68680;SDS011;55836;49.858;6.756;2023-07-24T13:05:12;2.77;;;2.50;;
68680;SDS011;55836;49.858;6.756;2023-07-24T13:07:38;3.10;;;2.43;;
68680;SDS011;55836;49.858;6.756;2023-07-24T13:10:05;3.47;;;2.60;;
68680;SDS011;55836;49.858;6.756;2023-07-24T13:12:31;3.60;;;2.27;;
68680;SDS011;55836;49.858;6.756;2023-07-24T13:14:57;3.27;;;2.10;;
68680;SDS011;55836;49.858;6.756;2023-07-24T13:17:23;3.73;;;1.90;;
68680;SDS011;55836;49.858;6.756;2023-07-24T13:19:50;2.93;;;1.97;;
68680;SDS011;55836;49.858;6.756;2023-07-24T13:22:16;1.60;;;1.50;;
68680;SDS011;55836;49.858;6.756;2023-07-24T13:24:42;3.10;;;1.90;;
68680;SDS011;55836;49.858;6.756;2023-07-24T13:27:08;2.43;;;1.70;;
68680;SDS011;55836;49.858;6.756;2023-07-24T13:29:34;2.33;;;2.13;;
68680;SDS011;55836;49.858;6.756;2023-07-24T13:32:02;1.77;;;1.60;;
68680;SDS011;55836;49.858;6.756;2023-07-24T13:34:28;2.67;;;1.93;;
68680;SDS011;55836;49.858;6.756;2023-07-24T13:36:54;2.57;;;1.80;;
68680;SDS011;55836;49.858;6.756;2023-07-24T13:39:21;2.40;;;1.57;;
68680;SDS011;55836;49.858;6.756;2023-07-24T13:41:47;4.50;;;1.73;;
68680;SDS011;55836;49.858;6.756;2023-07-24T13:44:13;2.97;;;1.47;;
68680;SDS011;55836;49.858;6.756;2023-07-24T13:46:39;2.83;;;1.60;;
68680;SDS011;55836;49.858;6.756;2023-07-24T13:49:05;3.03;;;1.80;;
68680;SDS011;55836;49.858;6.756;2023-07-24T13:51:31;2.73;;;1.60;;
68680;SDS011;55836;49.858;6.756;2023-07-24T13:53:57;1.77;;;1.67;;
68680;SDS011;55836;49.858;6.756;2023-07-24T13:56:24;1.60;;;1.50;;
68680;SDS011;55836;49.858;6.756;2023-07-24T13:58:52;2.40;;;1.80;;
68680;SDS011;55836;49.858;6.756;2023-07-24T14:01:18;2.13;;;1.60;;
68680;SDS011;55836;49.858;6.756;2023-07-24T14:03:44;1.53;;;1.43;;
68680;SDS011;55836;49.858;6.756;2023-07-24T14:06:10;2.33;;;1.77;;
68680;SDS011;55836;49.858;6.756;2023-07-24T14:08:36;1.90;;;1.70;;
68680;SDS011;55836;49.858;6.756;2023-07-24T14:11:02;2.50;;;1.67;;
68680;SDS011;55836;49.858;6.756;2023-07-24T14:13:28;2.40;;;1.70;;
68680;SDS011;55836;49.858;6.756;2023-07-24T14:15:54;1.77;;;1.67;;
68680;SDS011;55836;49.858;6.756;2023-07-24T14:18:23;2.27;;;1.83;;
68680;SDS011;55836;49.858;6.756;2023-07-24T14:20:49;3.57;;;2.07;;
68680;SDS011;55836;49.858;6.756;2023-07-24T14:23:17;1.83;;;1.60;;
68680;SDS011;55836;49.858;6.756;2023-07-24T14:25:43;1.97;;;1.53;;
68680;SDS011;55836;49.858;6.756;2023-07-24T14:28:09;2.20;;;1.90;;
68680;SDS011;55836;49.858;6.756;2023-07-24T14:30:35;2.00;;;1.90;;
68680;SDS011;55836;49.858;6.756;2023-07-24T14:33:01;2.67;;;1.73;;
68680;SDS011;55836;49.858;6.756;2023-07-24T14:35:27;3.17;;;1.80;;
68680;SDS011;55836;49.858;6.756;2023-07-24T14:37:53;2.53;;;2.03;;
68680;SDS011;55836;49.858;6.756;2023-07-24T14:40:19;3.00;;;2.00;;
68680;SDS011;55836;49.858;6.756;2023-07-24T14:42:45;2.23;;;2.03;;
68680;SDS011;55836;49.858;6.756;2023-07-24T14:45:11;3.60;;;1.90;;
68680;SDS011;55836;49.858;6.756;2023-07-24T14:47:37;2.63;;;2.00;;
68680;SDS011;55836;49.858;6.756;2023-07-24T14:50:03;2.10;;;1.90;;